Time;durP1;ratioP1;P1;durP2;ratioP2;P2;SDS_P1;SDS_P2;PMS_P1;PMS_P2;Temp;Humidity;BMP_temperature;BMP_pressure;BME280_temperature;BME280_humidity;BME280_pressure;Samples;Min_cycle;Max_cycle;Signal;HPM_P1;HPM_P2
2023/04/01 00:02:01;;;;;;;7.45;1.42;;;;;;;19.64;39.02;99171.56;16111878;19;131317;-46
2023/04/01 00:07:23;;;;;;;10.75;1.85;;;;;;;19.61;38.60;99165.78;16112603;19;132039;-46
2023/04/01 00:12:51;;;;;;;6.28;1.60;;;;;;;19.58;38.79;99186.59;16113907;19;130433;-48
2023/04/01 00:18:13;;;;;;;5.35;1.20;;;;;;;19.55;38.75;99192.75;16111700;19;129931;-46
2023/04/01 00:23:35;;;;;;;5.25;1.33;;;;;;;19.52;38.74;99196.91;16102319;19;129990;-48
2023/04/01 00:28:58;;;;;;;6.22;1.20;;;;;;;19.49;38.76;99188.38;16104642;19;129749;-51
2023/04/01 00:34:20;;;;;;;15.95;2.30;;;;;;;19.47;38.89;99196.16;16108981;19;130108;-46
2023/04/01 00:39:42;;;;;;;11.85;1.88;;;;;;;19.43;38.57;99198.69;16109235;19;129406;-50
2023/04/01 00:45:44;;;;;;;12.45;1.52;;;;;;;19.41;38.70;99200.91;16111761;19;131143;-48
2023/04/01 00:51:09;;;;;;;8.32;1.80;;;;;;;19.41;38.59;99200.13;16089821;19;129646;-49
2023/04/01 00:56:38;;;;;;;17.10;2.08;;;;;;;19.40;38.99;99209.53;16099994;19;130632;-51
2023/04/01 01:02:01;;;;;;;17.27;1.77;;;;;;;19.37;38.91;99206.25;16096828;19;131657;-47
2023/04/01 01:07:51;;;;;;;13.90;1.60;;;;;;;19.37;38.86;99211.78;16099711;19;129846;-51
2023/04/01 01:13:25;;;;;;;10.75;1.35;;;;;;;19.36;38.79;99215.66;16100425;19;129762;-48
2023/04/01 01:19:06;;;;;;;10.15;1.67;;;;;;;19.33;38.96;99215.44;16099518;19;131124;-51
2023/04/01 01:24:49;;;;;;;10.45;1.70;;;;;;;19.30;38.97;99222.41;16108156;19;130227;-46
2023/04/01 01:30:35;;;;;;;9.50;1.15;;;;;;;19.30;39.19;99219.63;16102264;19;130598;-49
2023/04/01 01:36:01;;;;;;;9.32;1.23;;;;;;;19.27;39.28;99224.91;16117869;19;130542;-51
2023/04/01 01:41:26;;;;;;;15.95;1.70;;;;;;;19.25;39.03;99227.16;16124615;19;130800;-48
2023/04/01 01:46:49;;;;;;;6.55;1.90;;;;;;;19.22;39.31;99234.09;16122750;19;130319;-51
2023/04/01 01:52:12;;;;;;;5.63;0.88;;;;;;;19.21;39.29;99243.53;16121526;19;130668;-51
2023/04/01 01:57:39;;;;;;;9.15;1.27;;;;;;;19.20;39.12;99244.66;16117725;19;129319;-50
2023/04/01 02:03:01;;;;;;;11.52;1.10;;;;;;;19.18;39.39;99260.75;16120844;19;130694;-47
2023/04/01 02:09:03;;;;;;;4.18;1.10;;;;;;;19.16;39.38;99260.22;16112828;19;129699;-47
2023/04/01 02:14:30;;;;;;;6.97;1.23;;;;;;;19.13;38.94;99263.56;16119820;19;130483;-50
2023/04/01 02:20:27;;;;;;;4.82;0.80;;;;;;;19.13;38.98;99277.41;16114669;19;131843;-47
2023/04/01 02:25:50;;;;;;;8.03;1.00;;;;;;;19.11;39.42;99285.19;16110629;19;131759;-47
2023/04/01 02:31:14;;;;;;;8.85;1.20;;;;;;;19.08;39.27;99284.63;16119855;19;129673;-48
2023/04/01 02:36:37;;;;;;;5.82;0.90;;;;;;;19.07;39.44;99285.78;16115875;19;130350;-50
2023/04/01 02:42:00;;;;;;;9.82;1.17;;;;;;;19.06;39.50;99283.28;16118007;19;129653;-46
2023/04/01 02:47:21;;;;;;;5.72;0.90;;;;;;;19.04;39.25;99291.91;16111390;19;131558;-51
2023/04/01 02:52:43;;;;;;;4.95;0.85;;;;;;;19.02;39.49;99291.34;16115826;19;131282;-47
2023/04/01 02:58:06;;;;;;;3.63;0.80;;;;;;;19.00;39.56;99295.53;16114750;19;131400;-54
2023/04/01 03:03:27;;;;;;;4.03;1.00;;;;;;;18.99;39.39;99299.44;16114904;19;130849;-48
2023/04/01 03:08:49;;;;;;;4.95;0.90;;;;;;;18.98;39.13;99304.13;16113770;19;129601;-50
2023/04/01 03:14:11;;;;;;;10.05;1.00;;;;;;;18.95;39.26;99312.19;16114163;19;131076;-51
2023/04/01 03:19:33;;;;;;;2.35;0.70;;;;;;;18.95;39.16;99326.91;16112531;19;131269;-48
2023/04/01 03:24:55;;;;;;;3.88;0.57;;;;;;;18.92;39.52;99333.00;16113480;19;130528;-51
2023/04/01 03:30:17;;;;;;;2.38;0.70;;;;;;;18.90;39.46;99335.22;16102791;19;130742;-48
2023/04/01 03:35:39;;;;;;;3.58;0.90;;;;;;;18.89;39.17;99336.34;16108101;19;129605;-48
2023/04/01 03:41:01;;;;;;;1.85;0.60;;;;;;;18.87;39.23;99353.25;16113064;19;130480;-51
2023/04/01 03:46:23;;;;;;;1.52;0.57;;;;;;;18.86;39.65;99361.84;16112822;19;133739;-52
2023/04/01 03:51:45;;;;;;;3.67;0.90;;;;;;;18.85;39.51;99354.63;16107502;19;130401;-46
2023/04/01 03:57:07;;;;;;;2.50;0.80;;;;;;;18.84;39.43;99366.84;16106599;19;129961;-48
2023/04/01 04:02:29;;;;;;;2.97;0.70;;;;;;;18.83;39.29;99374.34;16112221;19;130222;-47
2023/04/01 04:07:52;;;;;;;0.98;0.40;;;;;;;18.83;39.28;99379.06;16114786;19;129369;-49
2023/04/01 04:13:14;;;;;;;2.63;0.88;;;;;;;18.79;39.47;99383.50;16109395;19;130455;-50
2023/04/01 04:18:36;;;;;;;2.92;0.70;;;;;;;18.79;39.39;99384.31;16111915;19;131283;-51
2023/04/01 04:24:00;;;;;;;4.28;0.50;;;;;;;18.77;39.69;99390.16;16111518;19;130644;-48
2023/04/01 04:29:22;;;;;;;2.58;0.82;;;;;;;18.76;39.36;99390.44;16108561;19;129469;-48
2023/04/01 04:34:44;;;;;;;3.17;0.85;;;;;;;18.75;39.54;99400.69;16107292;19;129547;-48
2023/04/01 04:40:07;;;;;;;3.30;0.60;;;;;;;18.73;39.69;99405.69;16107986;19;129770;-46
2023/04/01 04:45:30;;;;;;;2.47;0.75;;;;;;;18.73;39.60;99413.19;16107878;19;129700;-49
2023/04/01 04:50:52;;;;;;;2.63;0.50;;;;;;;18.71;39.65;99415.41;16107773;19;131074;-46
2023/04/01 04:56:19;;;;;;;1.35;0.52;;;;;;;18.71;39.61;99418.97;16106317;19;129046;-49
2023/04/01 05:01:41;;;;;;;1.00;0.40;;;;;;;18.68;39.83;99432.56;16103459;19;132128;-50
2023/04/01 05:07:03;;;;;;;1.15;0.52;;;;;;;18.68;39.61;99443.66;16114558;19;129457;-50
2023/04/01 05:12:24;;;;;;;1.30;0.40;;;;;;;18.66;39.66;99452.25;16123176;19;130745;-51
2023/04/01 05:17:46;;;;;;;1.27;0.30;;;;;;;18.65;39.87;99455.28;16123231;19;130176;-48
2023/04/01 05:23:09;;;;;;;3.63;0.55;;;;;;;18.65;39.40;99463.59;16120498;19;130171;-48
2023/04/01 05:28:30;;;;;;;1.20;0.50;;;;;;;18.62;39.87;99473.31;16120897;19;130011;-49
2023/04/01 05:33:53;;;;;;;1.23;0.43;;;;;;;18.61;39.80;99477.19;16118381;19;131006;-49
2023/04/01 05:39:15;;;;;;;2.22;0.60;;;;;;;18.65;39.49;99488.53;16119937;19;132005;-49
2023/04/01 05:44:37;;;;;;;4.43;0.68;;;;;;;18.77;39.86;99500.13;16120916;19;129365;-47
2023/04/01 05:49:59;;;;;;;4.45;0.70;;;;;;;18.86;39.48;99500.38;16118512;19;131122;-46
2023/04/01 05:55:21;;;;;;;15.57;0.88;;;;;;;18.98;39.41;99503.66;16117880;19;130732;-48
2023/04/01 06:00:43;;;;;;;12.13;0.88;;;;;;;19.12;39.17;99514.13;16121934;19;133522;-48
2023/04/01 06:06:25;;;;;;;7.10;0.63;;;;;;;19.25;38.92;99524.66;16115482;19;129433;-47
2023/04/01 06:12:05;;;;;;;4.93;0.70;;;;;;;19.31;39.17;99534.63;16118953;19;129796;-49
2023/04/01 06:18:06;;;;;;;12.20;0.50;;;;;;;19.36;39.26;99537.34;16119528;19;131135;-50
2023/04/01 06:24:02;;;;;;;9.93;0.90;;;;;;;19.34;39.18;99550.66;16119211;19;131177;-49
2023/04/01 06:29:44;;;;;;;5.95;0.70;;;;;;;19.33;39.34;99548.19;16112980;19;129868;-48
2023/04/01 06:35:20;;;;;;;2.72;0.50;;;;;;;19.32;39.88;99569.53;16121874;19;129630;-48
2023/04/01 06:41:02;;;;;;;7.63;0.80;;;;;;;19.29;39.91;99569.25;16118014;19;130987;-46
2023/04/01 06:46:53;;;;;;;12.38;0.77;;;;;;;19.25;39.89;99577.31;16119958;19;131238;-49
2023/04/01 06:52:51;;;;;;;9.15;0.75;;;;;;;19.22;39.80;99587.06;16112120;19;130826;-50
2023/04/01 06:58:42;;;;;;;4.97;0.70;;;;;;;19.19;39.76;99595.06;16114362;19;130527;-47
2023/04/01 07:04:32;;;;;;;8.10;0.73;;;;;;;19.18;40.08;99601.72;16118994;19;130429;-44
2023/04/01 07:09:59;;;;;;;4.63;0.60;;;;;;;19.16;39.90;99609.50;16119094;19;130152;-51
2023/04/01 07:15:36;;;;;;;8.75;0.60;;;;;;;19.16;40.21;99617.81;16117885;19;129643;-49
2023/04/01 07:21:00;;;;;;;3.72;0.45;;;;;;;19.12;40.06;99625.03;16121299;19;129870;-49
2023/04/01 07:26:24;;;;;;;6.25;0.43;;;;;;;19.10;40.37;99632.78;16122361;19;130725;-48
2023/04/01 07:31:52;;;;;;;4.53;0.60;;;;;;;19.09;40.22;99643.06;16114864;19;131073;-46
2023/04/01 07:37:28;;;;;;;3.75;0.85;;;;;;;19.22;40.43;99641.66;16116215;19;132194;-48
2023/04/01 07:42:58;;;;;;;5.35;0.63;;;;;;;19.33;40.27;99664.66;16113896;19;131562;-49
2023/04/01 07:48:35;;;;;;;8.38;0.55;;;;;;;19.45;40.16;99661.53;16113375;19;129883;-49
2023/04/01 07:54:02;;;;;;;3.97;0.75;;;;;;;19.54;40.49;99670.97;16115162;19;130982;-46
2023/04/01 07:59:37;;;;;;;13.85;0.95;;;;;;;19.66;40.08;99679.78;16112175;19;129673;-48
2023/04/01 08:05:28;;;;;;;6.00;0.35;;;;;;;19.80;40.01;99685.56;16111768;19;130688;-50
2023/04/01 08:10:56;;;;;;;4.72;0.32;;;;;;;19.92;40.12;99699.09;16112588;19;130999;-47
2023/04/01 08:16:33;;;;;;;8.45;0.60;;;;;;;20.03;40.14;99704.63;16111031;19;131146;-47
2023/04/01 08:21:58;;;;;;;13.95;0.90;;;;;;;20.03;39.65;99707.41;16113257;19;129611;-45
2023/04/01 08:27:23;;;;;;;5.40;0.70;;;;;;;20.04;39.98;99717.41;16115272;19;129701;-50
2023/04/01 08:32:55;;;;;;;10.77;0.60;;;;;;;20.06;39.74;99734.59;16111848;19;130253;-46
2023/04/01 08:38:36;;;;;;;7.50;1.05;;;;;;;20.05;39.97;99724.63;16109660;19;129958;-46
2023/04/01 08:44:10;;;;;;;9.48;0.52;;;;;;;20.03;40.20;99738.75;16123079;19;130408;-44
2023/04/01 08:49:44;;;;;;;12.02;1.00;;;;;;;20.04;39.83;99745.97;16125862;19;130221;-50
2023/04/01 08:55:50;;;;;;;12.50;0.88;;;;;;;20.07;39.96;99752.91;16123807;19;129930;-51
2023/04/01 09:01:34;;;;;;;16.85;1.15;;;;;;;20.08;39.93;99752.63;16122393;19;129701;-46
2023/04/01 09:07:31;;;;;;;10.07;0.90;;;;;;;20.07;40.48;99769.56;16119833;19;129427;-45
2023/04/01 09:13:41;;;;;;;11.73;0.80;;;;;;;20.04;40.33;99770.16;16121673;19;130933;-47
2023/04/01 09:19:37;;;;;;;13.13;0.75;;;;;;;19.99;40.21;99777.38;16115615;19;133617;-47
2023/04/01 09:25:15;;;;;;;5.97;0.70;;;;;;;19.90;40.64;99787.38;16114896;19;131868;-48
2023/04/01 09:31:12;;;;;;;12.65;0.90;;;;;;;19.89;40.15;99782.94;16113634;19;130018;-40
2023/04/01 09:36:34;;;;;;;11.27;0.90;;;;;;;19.89;40.33;99782.94;16114034;19;129707;-42
2023/04/01 09:42:14;;;;;;;9.98;0.95;;;;;;;19.93;40.20;99794.28;16116171;19;129713;-44
2023/04/01 09:47:49;;;;;;;7.05;0.70;;;;;;;19.91;40.28;99804.84;16111105;19;129691;-42
2023/04/01 09:53:16;;;;;;;4.65;0.60;;;;;;;19.86;40.36;99811.25;16110035;19;129903;-46
2023/04/01 09:59:01;;;;;;;13.85;1.13;;;;;;;19.81;39.92;99809.31;16115809;19;130670;-46
2023/04/01 10:04:35;;;;;;;19.60;1.00;;;;;;;19.79;40.37;99817.09;16115249;19;130409;-46
2023/04/01 10:10:15;;;;;;;17.63;1.10;;;;;;;19.77;40.42;99818.50;16118866;19;129812;-44
2023/04/01 10:16:02;;;;;;;14.85;1.23;;;;;;;19.75;40.01;99820.72;16119379;19;129393;-45
2023/04/01 10:21:32;;;;;;;6.33;1.30;;;;;;;19.72;40.54;99826.81;16120688;19;136132;-52
2023/04/01 10:27:00;;;;;;;6.35;0.98;;;;;;;19.72;40.26;99832.38;16118117;19;130029;-46
2023/04/01 10:32:56;;;;;;;10.90;1.33;;;;;;;19.72;40.40;99843.47;16123460;19;130282;-45
2023/04/01 10:38:45;;;;;;;7.83;0.93;;;;;;;19.72;40.25;99844.31;16123582;19;130776;-45
2023/04/01 10:44:36;;;;;;;11.35;1.02;;;;;;;19.67;40.29;99850.72;16120001;19;130282;-47
2023/04/01 10:50:13;;;;;;;7.63;1.00;;;;;;;19.67;40.41;99853.47;16121075;19;132537;-52
2023/04/01 10:55:45;;;;;;;11.75;1.13;;;;;;;19.65;40.75;99864.03;16121122;19;130174;-45
2023/04/01 11:01:13;;;;;;;10.30;1.20;;;;;;;19.63;40.57;99863.47;16122293;19;129867;-45
2023/04/01 11:07:08;;;;;;;17.52;1.23;;;;;;;19.61;40.43;99870.41;16119533;19;129385;-45
2023/04/01 11:12:45;;;;;;;13.20;0.98;;;;;;;19.57;40.64;99870.13;16118036;19;129370;-47
2023/04/01 11:18:34;;;;;;;11.15;1.15;;;;;;;19.53;40.76;99885.69;16116880;19;132004;-45
2023/04/01 11:24:07;;;;;;;6.25;1.00;;;;;;;19.48;41.02;99883.75;16118108;19;130725;-48
2023/04/01 11:29:40;;;;;;;5.22;1.17;;;;;;;19.46;40.79;99890.66;16118576;19;130033;-47
2023/04/01 11:35:45;;;;;;;9.07;0.80;;;;;;;19.44;40.89;99904.81;16115755;19;130387;-46
2023/04/01 11:41:25;;;;;;;12.95;1.20;;;;;;;19.43;40.63;99903.13;16119692;19;129374;-45
2023/04/01 11:47:00;;;;;;;3.47;0.85;;;;;;;19.42;40.65;99914.53;16111376;19;129623;-47
2023/04/01 11:52:51;;;;;;;5.07;0.90;;;;;;;19.39;40.67;99921.44;16112181;19;130507;-46
2023/04/01 11:58:28;;;;;;;12.43;1.45;;;;;;;19.35;40.65;99932.25;16109948;19;130902;-47
2023/04/01 12:03:58;;;;;;;12.65;1.33;;;;;;;19.39;40.52;99935.31;16111165;19;129666;-49
2023/04/01 12:09:41;;;;;;;11.80;2.10;;;;;;;19.42;40.76;99940.31;16110701;19;130674;-49
2023/04/01 12:15:30;;;;;;;9.98;1.45;;;;;;;19.55;40.32;99955.59;16111583;19;129624;-46
2023/04/01 12:21:06;;;;;;;12.40;1.65;;;;;;;19.71;40.41;99947.25;16112305;19;131079;-48
2023/04/01 12:26:40;;;;;;;14.57;1.15;;;;;;;19.86;40.31;99965.88;16113309;19;130957;-48
2023/04/01 12:32:17;;;;;;;11.50;1.80;;;;;;;19.99;40.31;99965.31;16110799;19;129818;-45
2023/04/01 12:37:50;;;;;;;14.90;1.88;;;;;;;20.09;40.35;99970.03;16111637;19;129584;-49
2023/04/01 12:43:31;;;;;;;15.68;1.90;;;;;;;20.21;40.28;99973.34;16110371;19;129485;-46
2023/04/01 12:49:11;;;;;;;7.30;1.02;;;;;;;20.31;40.23;99980.00;16108807;19;129932;-47
2023/04/01 12:54:54;;;;;;;9.20;1.20;;;;;;;20.37;40.34;99982.47;16111107;19;131340;-46
2023/04/01 13:00:25;;;;;;;11.25;1.20;;;;;;;20.40;40.22;99990.25;16111256;19;130800;-50
2023/04/01 13:06:05;;;;;;;16.75;1.27;;;;;;;20.41;40.24;99994.69;16111154;19;129625;-47
2023/04/01 13:11:39;;;;;;;9.65;1.25;;;;;;;20.41;40.46;99993.88;16111908;19;131080;-46
2023/04/01 13:17:29;;;;;;;11.13;1.30;;;;;;;20.42;40.52;100003.88;16116455;19;129507;-44
2023/04/01 13:23:17;;;;;;;9.40;1.42;;;;;;;20.39;40.38;100007.19;16110345;19;131233;-45
2023/04/01 13:29:01;;;;;;;12.60;1.00;;;;;;;20.35;40.96;100020.81;16115763;19;129704;-45
2023/04/01 13:34:47;;;;;;;6.80;1.50;;;;;;;20.33;40.85;100019.41;16128673;19;129841;-48
2023/04/01 13:40:38;;;;;;;7.93;1.65;;;;;;;20.26;40.71;100030.81;16123967;19;130084;-47
2023/04/01 13:46:41;;;;;;;14.55;1.45;;;;;;;20.18;41.00;100036.94;16125740;19;129986;-45
2023/04/01 13:52:31;;;;;;;10.73;1.50;;;;;;;20.13;41.13;100041.38;16125484;19;130329;-46
2023/04/01 13:58:07;;;;;;;12.13;1.63;;;;;;;20.10;41.22;100041.09;16127393;19;129363;-49
2023/04/01 14:03:47;;;;;;;;;;;;;;;20.01;41.67;100040.81;16126036;19;132196;-50
2023/04/01 14:09:44;;;;;;;9.40;1.02;;;;;;;19.98;41.78;100053.28;16122826;19;131536;-46
2023/04/01 14:15:45;;;;;;;15.77;1.30;;;;;;;19.96;42.08;100072.16;16115505;19;130623;-49
2023/04/01 14:21:25;;;;;;;13.77;1.45;;;;;;;20.01;41.42;100067.75;16116470;19;130594;-44
2023/04/01 14:27:09;;;;;;;23.40;1.50;;;;;;;20.12;42.01;100074.97;16123595;19;131347;-43
2023/04/01 14:32:37;;;;;;;18.73;2.08;;;;;;;20.21;42.52;100078.88;16121497;19;129361;-44
2023/04/01 14:38:32;;;;;;;35.00;2.50;;;;;;;20.35;43.31;100084.72;16116910;19;133352;-43
2023/04/01 14:44:00;;;;;;;31.85;2.15;;;;;;;20.44;43.39;100088.59;16116730;19;130036;-47
2023/04/01 14:49:41;;;;;;;31.90;3.13;;;;;;;20.51;43.09;100093.00;16117412;19;130425;-44
2023/04/01 14:55:53;;;;;;;33.50;2.92;;;;;;;20.52;43.38;100089.97;16117469;19;130169;-47
2023/04/01 15:01:47;;;;;;;26.20;2.55;;;;;;;20.48;43.38;100094.41;16114844;19;130362;-41
2023/04/01 15:07:20;;;;;;;25.73;2.72;;;;;;;20.41;43.24;100105.00;16119484;19;129782;-42
2023/04/01 15:13:04;;;;;;;20.10;1.90;;;;;;;20.36;43.35;100113.31;16118382;19;129766;-41
2023/04/01 15:18:32;;;;;;;24.80;1.80;;;;;;;20.23;43.64;100112.75;16116663;19;129097;-41
2023/04/01 15:23:56;;;;;;;34.33;2.78;;;;;;;20.19;43.46;100121.91;16118183;19;130911;-44
2023/04/01 15:29:18;;;;;;;32.93;2.23;;;;;;;20.13;43.79;100134.97;16120194;19;129517;-43
2023/04/01 15:35:01;;;;;;;25.38;2.65;;;;;;;20.11;43.65;100134.41;16116630;19;130010;-43
2023/04/01 15:40:23;;;;;;;24.30;3.35;;;;;;;20.06;43.48;100138.00;16118719;19;130803;-42
2023/04/01 15:46:22;;;;;;;21.45;1.80;;;;;;;20.05;43.70;100152.19;16114188;19;129979;-43
2023/04/01 15:52:07;;;;;;;32.97;1.95;;;;;;;20.01;43.29;100153.84;16115765;19;129706;-43
2023/04/01 15:57:39;;;;;;;16.52;1.70;;;;;;;19.96;43.84;100154.63;16115006;19;129483;-41
2023/04/01 16:03:16;;;;;;;16.25;1.90;;;;;;;19.95;43.73;100170.44;16120375;19;129832;-43
2023/04/01 16:09:20;;;;;;;21.95;2.10;;;;;;;19.94;43.98;100174.31;16115811;19;130245;-45
2023/04/01 16:14:58;;;;;;;16.77;1.80;;;;;;;19.95;43.97;100181.53;16115233;19;130178;-47
2023/04/01 16:20:23;;;;;;;12.27;1.50;;;;;;;19.92;43.70;100189.59;16116848;19;131163;-42
2023/04/01 16:25:57;;;;;;;18.67;1.40;;;;;;;19.89;43.65;100190.97;16109986;19;131220;-44
2023/04/01 16:31:35;;;;;;;11.95;1.40;;;;;;;19.94;44.38;100196.53;16108863;19;130140;-42
2023/04/01 16:37:28;;;;;;;11.52;1.50;;;;;;;20.14;44.28;100208.84;16115133;19;129726;-45
2023/04/01 16:43:04;;;;;;;14.40;1.42;;;;;;;20.29;44.38;100210.81;16110951;19;130605;-41
2023/04/01 16:48:49;;;;;;;;;;;;;;;20.33;44.10;100214.72;16116577;19;129297;-41
2023/04/01 16:54:18;;;;;;;9.07;1.60;;;;;;;20.37;43.99;100217.75;16113270;19;129481;-43
2023/04/01 16:59:52;;;;;;;9.88;1.50;;;;;;;20.35;44.42;100223.59;16112738;19;130128;-42
2023/04/01 17:05:14;;;;;;;8.23;1.70;;;;;;;20.31;44.72;100232.78;16121531;19;131078;-45
2023/04/01 17:11:01;;;;;;;14.73;2.22;;;;;;;20.35;44.84;100244.97;16124653;19;129714;-43
2023/04/01 17:16:38;;;;;;;13.18;1.77;;;;;;;20.60;44.72;100236.69;16123385;19;130461;-44
2023/04/01 17:22:11;;;;;;;12.52;1.85;;;;;;;20.97;44.64;100237.56;16125490;19;130346;-41
2023/04/01 17:27:57;;;;;;;15.15;2.00;;;;;;;21.31;43.99;100255.56;16126321;19;129620;-46
2023/04/01 17:33:40;;;;;;;10.23;1.55;;;;;;;21.50;44.03;100265.06;16126810;19;129770;-42
2023/04/01 17:39:13;;;;;;;13.35;1.80;;;;;;;21.54;44.09;100278.41;16122006;19;131249;-43
2023/04/01 17:44:41;;;;;;;20.15;2.10;;;;;;;21.47;44.34;100287.00;16123433;19;131232;-44
2023/04/01 17:50:18;;;;;;;16.55;2.42;;;;;;;21.40;44.00;100298.44;16125415;19;129572;-41
2023/04/01 17:56:06;;;;;;;10.43;2.00;;;;;;;21.28;43.74;100300.69;16124007;19;130488;-47
2023/04/01 18:01:38;;;;;;;13.88;3.22;;;;;;;21.15;44.28;100302.91;16126468;19;130180;-46
2023/04/01 18:07:18;;;;;;;17.60;2.03;;;;;;;21.10;44.71;100314.03;16129478;19;130534;-46
2023/04/01 18:13:00;;;;;;;18.02;2.28;;;;;;;21.04;44.73;100324.31;16120415;19;129704;-44
2023/04/01 18:18:30;;;;;;;20.90;2.30;;;;;;;21.01;45.23;100333.19;16123780;19;131218;-43
2023/04/01 18:23:58;;;;;;;19.27;2.63;;;;;;;21.19;44.77;100342.94;16120894;19;130334;-43
2023/04/01 18:29:28;;;;;;;15.18;2.70;;;;;;;21.41;44.78;100350.19;16121583;19;129529;-42
2023/04/01 18:35:19;;;;;;;15.88;2.40;;;;;;;21.63;44.63;100363.00;16116589;19;130473;-44
2023/04/01 18:41:06;;;;;;;29.65;3.42;;;;;;;21.80;44.31;100369.06;16114130;19;129905;-45
2023/04/01 18:46:45;;;;;;;;;;;;;;;21.93;44.21;100381.59;16114071;19;129888;-46
2023/04/01 18:52:34;;;;;;;28.00;3.08;;;;;;;22.15;43.79;100393.50;16119887;19;130808;-53
2023/04/01 18:58:33;;;;;;;37.53;2.88;;;;;;;22.34;43.63;100396.53;16112541;19;129884;-46
2023/04/01 19:04:19;;;;;;;27.30;3.42;;;;;;;22.51;43.36;100410.13;16120310;19;130938;-46
2023/04/01 19:09:45;;;;;;;;;;;;;;;22.63;43.25;100407.84;16121258;19;130896;-46
2023/04/01 19:15:35;;;;;;;19.97;3.30;;;;;;;22.78;43.03;100418.06;16124821;19;129734;-47
2023/04/01 19:21:39;;;;;;;34.90;2.90;;;;;;;22.88;42.67;100428.34;16119146;19;129918;-47
2023/04/01 19:27:18;;;;;;;21.25;2.65;;;;;;;22.93;42.80;100438.66;16109942;19;130465;-45
2023/04/01 19:32:45;;;;;;;14.95;2.50;;;;;;;22.93;42.91;100447.03;16107043;19;130145;-44
2023/04/01 19:38:25;;;;;;;29.70;3.03;;;;;;;22.88;42.74;100454.28;16110361;19;129612;-45
2023/04/01 19:43:59;;;;;;;20.67;2.72;;;;;;;22.80;42.78;100462.41;16110098;19;129981;-49
2023/04/01 19:49:26;;;;;;;21.52;2.97;;;;;;;22.66;42.49;100473.34;16111369;19;131257;-44
2023/04/01 19:55:01;;;;;;;13.48;2.53;;;;;;;22.53;42.22;100483.13;16111387;19;130434;-46
2023/04/01 20:00:39;;;;;;;14.30;2.35;;;;;;;22.46;42.74;100485.41;16116482;19;129734;-46
2023/04/01 20:06:16;;;;;;;12.85;2.05;;;;;;;22.39;42.36;100497.69;16120385;19;131731;-46
2023/04/01 20:12:13;;;;;;;12.82;2.00;;;;;;;22.33;42.80;100512.75;16116160;19;129651;-44
2023/04/01 20:17:44;;;;;;;;;;;;;;;22.22;42.52;100522.22;16108138;19;130679;-44
2023/04/01 20:23:44;;;;;;;11.35;1.63;;;;;;;22.18;42.26;100529.44;16107787;19;130114;-45
2023/04/01 20:29:36;;;;;;;7.57;1.55;;;;;;;22.12;41.95;100543.41;16108190;19;129543;-49
2023/04/01 20:35:13;;;;;;;9.38;1.27;;;;;;;22.04;41.90;100554.25;16105496;19;129821;-45
2023/04/01 20:40:46;;;;;;;11.25;1.65;;;;;;;21.97;41.95;100568.47;16101380;19;131351;-48
2023/04/01 20:46:17;;;;;;;6.53;1.45;;;;;;;21.81;41.36;100576.78;16106589;19;129879;-45
2023/04/01 20:52:03;;;;;;;13.95;1.75;;;;;;;21.68;41.45;100594.03;16105124;19;136219;-46
2023/04/01 20:57:51;;;;;;;8.50;1.48;;;;;;;21.56;41.16;100607.38;16106913;19;129734;-52
2023/04/01 21:03:19;;;;;;;10.27;1.60;;;;;;;21.42;41.19;100621.75;16108913;19;129374;-49
2023/04/01 21:09:15;;;;;;;8.32;1.45;;;;;;;21.30;40.79;100632.28;16110317;19;130234;-46
2023/04/01 21:14:58;;;;;;;5.20;1.23;;;;;;;21.16;40.91;100643.09;16099164;19;130030;-50
2023/04/01 21:20:47;;;;;;;8.75;1.45;;;;;;;21.02;41.17;100654.69;16105627;19;131529;-47
2023/04/01 21:26:34;;;;;;;9.68;1.83;;;;;;;20.87;40.90;100658.22;16110203;19;130135;-48
2023/04/01 21:32:26;;;;;;;3.15;1.50;;;;;;;20.77;41.17;100668.44;16107274;19;131973;-47
2023/04/01 21:38:25;;;;;;;5.10;1.27;;;;;;;20.68;40.94;100673.63;16110270;19;129355;-48
2023/04/01 21:43:59;;;;;;;3.22;1.10;;;;;;;20.57;41.06;100686.63;16106024;19;129293;-49
2023/04/01 21:49:24;;;;;;;3.28;1.30;;;;;;;20.48;41.05;100702.09;16115333;19;130525;-46
2023/04/01 21:55:22;;;;;;;6.63;1.27;;;;;;;20.40;41.14;100708.97;16123661;19;129209;-47
2023/04/01 22:01:05;;;;;;;3.42;1.40;;;;;;;20.34;41.06;100726.69;16119588;19;133346;-49
2023/04/01 22:06:29;;;;;;;1.58;1.20;;;;;;;20.24;40.89;100733.00;16124456;19;129406;-48
2023/04/01 22:12:06;;;;;;;3.57;1.00;;;;;;;20.18;40.84;100746.00;16120674;19;130888;-47
2023/04/01 22:17:36;;;;;;;8.75;1.75;;;;;;;20.12;41.01;100758.13;16117217;19;130566;-50
2023/04/01 22:23:43;;;;;;;3.38;1.20;;;;;;;20.06;40.60;100762.78;16121078;19;129827;-45
2023/04/01 22:29:05;;;;;;;3.38;1.33;;;;;;;19.99;40.67;100771.31;16120836;19;130194;-49
2023/04/01 22:34:55;;;;;;;2.13;1.13;;;;;;;19.94;40.43;100782.31;16121321;19;130086;-49
2023/04/01 22:40:26;;;;;;;2.28;0.90;;;;;;;19.87;40.47;100791.97;16120153;19;130163;-48
2023/04/01 22:46:10;;;;;;;4.22;1.02;;;;;;;19.83;40.87;100799.94;16121289;19;132206;-52
2023/04/01 22:51:44;;;;;;;3.30;1.17;;;;;;;19.80;40.67;100806.03;16119430;19;130387;-52
2023/04/01 22:57:44;;;;;;;1.67;1.20;;;;;;;19.76;40.77;100815.97;16122639;19;131327;-52
2023/04/01 23:03:28;;;;;;;2.20;0.88;;;;;;;19.68;40.91;100837.53;16120920;19;129473;-50
2023/04/01 23:09:01;;;;;;;1.95;0.77;;;;;;;19.63;40.63;100840.22;16120499;19;130335;-52
2023/04/01 23:14:26;;;;;;;1.30;0.80;;;;;;;19.59;40.55;100852.91;16119342;19;131021;-54
2023/04/01 23:19:54;;;;;;;;;;;;;;;19.51;40.63;100862.50;16117985;19;129646;-52
2023/04/01 23:25:25;;;;;;;2.72;1.13;;;;;;;19.51;40.17;100875.56;16120118;19;129478;-55
2023/04/01 23:30:49;;;;;;;1.30;0.60;;;;;;;19.44;40.60;100888.78;16116027;19;129817;-54
2023/04/01 23:36:14;;;;;;;1.23;0.80;;;;;;;19.42;40.09;100902.06;16118487;19;131018;-54
2023/04/01 23:41:36;;;;;;;3.60;0.70;;;;;;;19.38;40.42;100904.50;16115326;19;129484;-53
2023/04/01 23:47:00;;;;;;;0.93;0.60;;;;;;;19.37;40.25;100911.13;16117232;19;129305;-51
2023/04/01 23:52:34;;;;;;;1.00;0.63;;;;;;;19.36;39.96;100926.09;16117720;19;129208;-50
2023/04/01 23:58:22;;;;;;;1.95;0.85;;;;;;;19.33;40.21;100935.75;16116183;19;129702;-45
